createdAt,value
2023-04-15T00:02:02.087Z,9.24
2023-04-15T00:04:32.004Z,9.17
2023-04-15T00:07:00.618Z,9.23
2023-04-15T00:09:29.000Z,9.18
2023-04-15T00:11:57.901Z,9.20
2023-04-15T00:14:26.947Z,9.24
2023-04-15T00:16:57.750Z,9.22
2023-04-15T00:19:26.811Z,9.24
2023-04-15T00:21:55.234Z,9.24
2023-04-15T00:24:23.965Z,9.25
2023-04-15T00:26:52.282Z,9.22
2023-04-15T00:29:20.756Z,9.21
2023-04-15T00:31:49.106Z,9.22
2023-04-15T00:34:19.563Z,9.20
2023-04-15T00:36:47.889Z,9.22
2023-04-15T00:39:16.913Z,9.24
2023-04-15T00:41:45.797Z,9.24
2023-04-15T00:44:14.531Z,9.27
2023-04-15T00:46:44.452Z,9.29
2023-04-15T00:49:13.452Z,9.30
2023-04-15T00:51:43.202Z,9.33
2023-04-15T00:54:12.369Z,9.33
2023-04-15T00:56:43.086Z,9.27
2023-04-15T00:59:12.049Z,9.33
2023-04-15T01:01:42.878Z,9.32
2023-04-15T01:04:13.342Z,9.32
2023-04-15T01:06:43.157Z,9.35
2023-04-15T01:09:12.511Z,9.37
2023-04-15T01:11:41.207Z,9.37
2023-04-15T01:14:11.457Z,9.34
2023-04-15T01:16:41.269Z,9.36
2023-04-15T01:19:12.249Z,9.33
2023-04-15T01:21:42.716Z,9.30
2023-04-15T01:24:12.401Z,9.34
2023-04-15T01:26:44.460Z,9.36
2023-04-15T01:29:13.286Z,9.34
2023-04-15T01:31:41.668Z,9.34
2023-04-15T01:34:10.541Z,9.36
2023-04-15T01:36:39.029Z,9.38
2023-04-15T01:39:07.622Z,9.38
2023-04-15T01:41:38.682Z,9.34
2023-04-15T01:44:08.767Z,9.34
2023-04-15T01:46:38.094Z,9.37
2023-04-15T01:49:06.768Z,9.37
2023-04-15T01:51:35.387Z,9.35
2023-04-15T01:54:04.321Z,9.33
2023-04-15T01:56:36.114Z,9.33
2023-04-15T01:59:06.676Z,9.34
2023-04-15T02:01:38.968Z,9.35
2023-04-15T02:04:08.411Z,9.32
2023-04-15T02:06:40.355Z,9.34
2023-04-15T02:09:09.326Z,9.28
2023-04-15T02:11:37.866Z,9.25
2023-04-15T02:14:06.620Z,9.29
2023-04-15T02:16:38.538Z,9.28
2023-04-15T02:19:07.027Z,9.31
2023-04-15T02:21:40.010Z,9.30
2023-04-15T02:24:08.799Z,9.32
2023-04-15T02:26:37.721Z,9.33
2023-04-15T02:29:06.592Z,9.28
2023-04-15T02:31:40.701Z,9.27
2023-04-15T02:34:09.435Z,9.28
2023-04-15T02:36:38.056Z,9.26
2023-04-15T02:39:09.963Z,9.27
2023-04-15T02:41:38.372Z,9.22
2023-04-15T02:44:11.321Z,9.26
2023-04-15T02:46:42.076Z,9.24
2023-04-15T02:49:11.101Z,9.23
2023-04-15T02:51:39.668Z,9.24
2023-04-15T02:54:10.634Z,9.21
2023-04-15T02:56:41.458Z,9.22
2023-04-15T02:59:16.916Z,9.21
2023-04-15T03:01:47.011Z,9.19
2023-04-15T03:04:20.508Z,9.19
2023-04-15T03:06:48.932Z,9.18
2023-04-15T03:09:19.769Z,9.17
2023-04-15T03:11:48.569Z,9.15
2023-04-15T03:14:19.120Z,9.14
2023-04-15T03:16:53.553Z,9.15
2023-04-15T03:19:22.196Z,9.16
2023-04-15T03:21:51.869Z,9.15
2023-04-15T03:24:20.511Z,9.16
2023-04-15T03:26:55.788Z,9.14
2023-04-15T03:29:24.813Z,9.14
2023-04-15T03:31:55.915Z,9.15
2023-04-15T03:34:24.303Z,9.19
2023-04-15T03:36:52.657Z,9.17
2023-04-15T03:39:24.099Z,9.20
2023-04-15T03:41:52.517Z,9.23
2023-04-15T03:44:21.072Z,9.24
2023-04-15T03:46:49.681Z,9.25
2023-04-15T03:49:19.540Z,9.27
2023-04-15T03:51:48.058Z,9.25
2023-04-15T03:54:16.604Z,9.24
2023-04-15T03:56:45.313Z,9.24
2023-04-15T03:59:13.915Z,9.24
2023-04-15T04:01:42.474Z,9.20
2023-04-15T04:04:11.181Z,9.21
2023-04-15T04:06:41.203Z,9.23
2023-04-15T04:09:11.802Z,9.21
2023-04-15T04:11:40.538Z,9.24
2023-04-15T04:14:11.202Z,9.23
2023-04-15T04:16:43.923Z,9.23
2023-04-15T04:19:14.931Z,9.18
2023-04-15T04:21:52.559Z,9.16
2023-04-15T04:24:23.413Z,9.16
2023-04-15T04:26:52.138Z,9.14
2023-04-15T04:29:26.405Z,9.13
2023-04-15T04:31:56.904Z,9.08
2023-04-15T04:34:28.017Z,9.03
2023-04-15T04:37:02.144Z,9.05
2023-04-15T04:39:30.756Z,9.03
2023-04-15T04:41:59.223Z,9.01
2023-04-15T04:44:29.698Z,9.03
2023-04-15T04:47:03.836Z,9.03
2023-04-15T04:49:32.216Z,9.04
2023-04-15T04:52:02.870Z,9.04
2023-04-15T04:54:31.802Z,9.04
2023-04-15T04:57:02.080Z,9.05
2023-04-15T04:59:30.582Z,9.04
2023-04-15T05:01:59.245Z,9.03
2023-04-15T05:04:38.666Z,9.03
2023-04-15T05:07:08.629Z,9.00
2023-04-15T05:09:37.477Z,8.99
2023-04-15T05:12:12.074Z,8.99
2023-04-15T05:14:40.505Z,8.96
2023-04-15T05:17:09.019Z,8.97
2023-04-15T05:19:37.509Z,8.96
2023-04-15T05:22:07.199Z,8.96
2023-04-15T05:24:37.851Z,8.99
2023-04-15T05:27:06.289Z,8.96
2023-04-15T05:29:37.250Z,8.97
2023-04-15T05:32:08.229Z,8.98
2023-04-15T05:34:36.668Z,8.97
2023-04-15T05:37:05.185Z,8.97
2023-04-15T05:39:34.097Z,9.00
2023-04-15T05:42:07.086Z,9.02
2023-04-15T05:45:07.814Z,9.00
2023-04-15T05:48:26.133Z,9.05
2023-04-15T05:55:30.939Z,9.11
2023-04-15T05:58:28.930Z,9.16
2023-04-15T06:01:00.651Z,9.22
2023-04-15T06:03:29.777Z,9.29
2023-04-15T06:05:58.391Z,9.37
2023-04-15T06:08:35.870Z,9.46
2023-04-15T06:12:06.258Z,9.58
2023-04-15T06:14:47.796Z,9.70
2023-04-15T06:17:24.515Z,9.99
2023-04-15T06:19:59.245Z,10.69
2023-04-15T06:22:29.670Z,11.79
2023-04-15T06:25:05.956Z,12.70
2023-04-15T06:27:34.571Z,13.45
2023-04-15T06:30:09.713Z,14.21
2023-04-15T06:32:45.730Z,14.75
2023-04-15T06:35:36.731Z,15.45
2023-04-15T06:38:12.917Z,16.15
2023-04-15T06:40:51.836Z,16.47
2023-04-15T06:43:41.849Z,16.35
2023-04-15T06:46:46.549Z,15.93
2023-04-15T06:49:28.865Z,16.00
2023-04-15T06:52:07.745Z,16.63
2023-04-15T06:55:44.030Z,17.62
2023-04-15T07:01:37.711Z,19.10
2023-04-15T07:04:49.815Z,19.79
2023-04-15T07:08:29.809Z,20.35
2023-04-15T07:36:16.718Z,22.65
2023-04-15T07:43:45.243Z,22.36
2023-04-15T07:51:46.880Z,22.02
2023-04-15T07:54:22.866Z,22.86
2023-04-15T08:05:37.491Z,23.63
2023-04-15T09:29:14.642Z,22.13
2023-04-15T09:32:51.531Z,22.23
2023-04-15T09:35:30.346Z,21.86
2023-04-15T09:39:25.274Z,20.39
2023-04-15T09:41:51.045Z,21.27
2023-04-15T09:44:35.165Z,22.20
2023-04-15T09:47:07.359Z,22.56
2023-04-15T09:50:08.604Z,22.21
2023-04-15T09:53:10.660Z,20.82
2023-04-15T09:55:45.313Z,21.17
2023-04-15T09:58:37.085Z,21.24
2023-04-15T10:01:11.841Z,20.61
2023-04-15T10:04:34.868Z,20.71
2023-04-15T10:07:30.961Z,21.08
2023-04-15T10:13:46.865Z,20.74
2023-04-15T10:16:45.300Z,20.40
2023-04-15T10:22:26.806Z,19.86
2023-04-15T10:25:22.011Z,19.60
2023-04-15T10:27:52.981Z,19.19
2023-04-15T10:30:22.166Z,19.05
2023-04-15T10:32:51.533Z,18.92
2023-04-15T10:35:20.827Z,18.82
2023-04-15T10:37:49.328Z,18.95
2023-04-15T10:40:31.538Z,19.32
2023-04-15T10:43:01.608Z,19.39
2023-04-15T10:45:33.243Z,18.92
2023-04-15T10:48:04.709Z,18.78
2023-04-15T10:50:33.240Z,18.89
2023-04-15T10:53:04.699Z,18.74
2023-04-15T10:55:36.098Z,18.75
2023-04-15T10:58:04.530Z,18.96
2023-04-15T11:00:35.727Z,18.59
2023-04-15T11:03:09.317Z,18.65
2023-04-15T11:05:53.806Z,18.73
2023-04-15T11:08:42.518Z,19.06
2023-04-15T11:11:12.504Z,19.31
2023-04-15T11:18:19.337Z,18.53
2023-04-15T11:25:35.731Z,19.26
2023-04-15T11:28:07.745Z,19.25
2023-04-15T11:30:37.859Z,19.36
2023-04-15T11:33:08.610Z,19.34
2023-04-15T11:35:37.328Z,19.27
2023-04-15T11:38:06.232Z,19.34
2023-04-15T11:40:35.524Z,19.21
2023-04-15T11:43:12.796Z,19.12
2023-04-15T11:45:51.542Z,19.19
2023-04-15T11:48:20.696Z,19.29
2023-04-15T11:50:55.512Z,19.49
2023-04-15T11:53:24.814Z,19.83
2023-04-15T11:55:55.358Z,20.01
2023-04-15T11:58:26.827Z,19.94
2023-04-15T12:00:56.706Z,20.06
2023-04-15T12:03:27.690Z,19.97
2023-04-15T12:06:15.089Z,19.39
2023-04-15T12:09:11.045Z,18.98
2023-04-15T12:11:47.429Z,19.06
2023-04-15T12:14:25.780Z,19.31
2023-04-15T12:16:58.444Z,19.32
2023-04-15T12:19:28.790Z,19.45
2023-04-15T12:22:01.121Z,19.46
2023-04-15T12:24:32.402Z,19.49
2023-04-15T12:27:05.198Z,19.61
2023-04-15T12:46:07.051Z,19.49
2023-04-15T12:48:35.593Z,19.43
2023-04-15T12:51:05.567Z,19.28
2023-04-15T12:53:34.089Z,19.32
2023-04-15T12:56:02.332Z,19.49
2023-04-15T12:58:30.905Z,19.52
2023-04-15T13:01:04.351Z,19.55
2023-04-15T13:03:34.360Z,19.72
2023-04-15T13:06:04.824Z,19.56
2023-04-15T13:08:33.281Z,19.37
2023-04-15T13:11:01.802Z,19.13
2023-04-15T13:13:32.081Z,18.88
2023-04-15T13:16:00.905Z,18.83
2023-04-15T13:18:31.181Z,18.98
2023-04-15T13:21:01.831Z,19.19
2023-04-15T13:23:30.825Z,19.30
2023-04-15T13:25:58.919Z,19.39
2023-04-15T13:28:27.301Z,19.47
2023-04-15T13:30:55.381Z,19.51
2023-04-15T13:33:23.518Z,19.56
2023-04-15T13:35:51.597Z,19.67
2023-04-15T13:38:21.420Z,19.62
2023-04-15T13:40:49.539Z,19.51
2023-04-15T13:43:17.893Z,19.52
2023-04-15T13:45:46.211Z,19.50
2023-04-15T13:48:14.378Z,19.55
2023-04-15T13:50:45.445Z,19.57
2023-04-15T13:53:14.226Z,19.34
2023-04-15T13:55:44.085Z,19.31
2023-04-15T13:58:12.583Z,19.35
2023-04-15T14:00:40.906Z,19.36
2023-04-15T14:03:09.240Z,19.41
2023-04-15T14:05:38.014Z,19.34
2023-04-15T14:08:06.218Z,19.34
2023-04-15T14:10:34.435Z,19.08
2023-04-15T14:13:04.033Z,18.93
2023-04-15T14:15:32.088Z,18.87
2023-04-15T14:18:00.260Z,19.13
2023-04-15T14:20:28.410Z,19.00
2023-04-15T14:22:56.524Z,18.83
2023-04-15T14:25:33.283Z,18.75
2023-04-15T14:28:03.678Z,18.71
2023-04-15T14:30:32.031Z,18.75
2023-04-15T14:33:00.305Z,18.71
2023-04-15T14:35:28.684Z,18.68
2023-04-15T14:37:57.480Z,18.72
2023-04-15T14:40:25.936Z,18.77
2023-04-15T14:42:54.198Z,18.79
2023-04-15T14:45:23.973Z,18.97
2023-04-15T14:47:53.393Z,19.00
2023-04-15T14:50:21.557Z,19.11
2023-04-15T14:52:49.703Z,19.18
2023-04-15T14:55:18.190Z,19.30
2023-04-15T14:57:46.312Z,19.42
2023-04-15T15:00:16.209Z,19.31
2023-04-15T15:02:48.012Z,19.55
2023-04-15T15:05:16.381Z,19.49
2023-04-15T15:07:44.671Z,19.10
2023-04-15T15:10:12.957Z,18.59
2023-04-15T15:12:41.417Z,18.53
2023-04-15T15:15:24.939Z,18.71
2023-04-15T15:17:57.878Z,18.83
2023-04-15T15:20:26.097Z,18.64
2023-04-15T15:22:54.211Z,18.61
2023-04-15T15:25:22.289Z,18.73
2023-04-15T15:27:50.845Z,18.88
2023-04-15T15:30:19.229Z,18.71
2023-04-15T15:32:47.554Z,18.61
2023-04-15T15:35:17.601Z,18.70
2023-04-15T15:37:47.041Z,18.72
2023-04-15T15:40:15.648Z,18.80
2023-04-15T15:42:43.937Z,18.95
2023-04-15T15:45:12.744Z,18.77
2023-04-15T15:47:42.923Z,18.73
2023-04-15T15:50:11.373Z,18.84
2023-04-15T15:52:40.933Z,18.95
2023-04-15T15:55:09.904Z,18.97
2023-04-15T15:57:38.025Z,18.91
2023-04-15T16:00:12.743Z,18.91
2023-04-15T16:05:12.857Z,18.56
2023-04-15T16:07:42.330Z,18.52
2023-04-15T16:10:11.238Z,18.45
2023-04-15T16:12:39.634Z,18.35
2023-04-15T16:15:08.837Z,18.14
2023-04-15T16:17:37.043Z,18.07
2023-04-15T16:20:06.342Z,17.98
2023-04-15T16:22:35.130Z,17.88
2023-04-15T16:25:04.790Z,17.81
2023-04-15T16:27:33.796Z,17.74
2023-04-15T16:30:03.538Z,17.73
2023-04-15T16:32:32.002Z,17.77
2023-04-15T16:35:00.314Z,17.78
2023-04-15T16:37:28.483Z,17.85
2023-04-15T16:39:56.920Z,17.90
2023-04-15T16:42:26.568Z,17.83
2023-04-15T16:44:56.229Z,17.66
2023-04-15T16:47:24.527Z,17.52
2023-04-15T16:49:52.642Z,17.31
2023-04-15T16:52:21.004Z,17.16
2023-04-15T16:54:49.090Z,17.04
2023-04-15T16:57:17.246Z,16.96
2023-04-15T16:59:48.096Z,16.95
2023-04-15T17:02:16.431Z,16.94
2023-04-15T17:04:44.707Z,16.91
2023-04-15T17:07:13.089Z,16.89
2023-04-15T17:09:41.870Z,16.82
2023-04-15T17:12:10.106Z,16.73
2023-04-15T17:14:39.017Z,16.65
2023-04-15T17:17:09.751Z,16.63
2023-04-15T17:19:37.928Z,16.60
2023-04-15T17:22:06.146Z,16.57
2023-04-15T17:24:35.163Z,16.42
2023-04-15T17:27:03.983Z,16.35
2023-04-15T17:29:32.311Z,16.23
2023-04-15T17:32:01.086Z,16.18
2023-04-15T17:34:50.393Z,16.11
2023-04-15T17:37:19.522Z,16.00
2023-04-15T17:39:47.593Z,15.98
2023-04-15T17:42:16.059Z,15.93
2023-04-15T17:44:44.165Z,15.93
2023-04-15T17:47:12.462Z,15.92
2023-04-15T17:49:41.946Z,15.94
2023-04-15T17:52:10.082Z,15.95
2023-04-15T17:54:38.150Z,15.98
2023-04-15T17:57:06.491Z,15.93
2023-04-15T17:59:34.840Z,15.86
2023-04-15T18:02:03.063Z,15.83
2023-04-15T18:04:31.498Z,15.81
2023-04-15T18:07:01.367Z,15.77
2023-04-15T18:09:29.579Z,15.71
2023-04-15T18:11:58.569Z,15.65
2023-04-15T18:14:34.163Z,15.56
2023-04-15T18:17:03.839Z,15.45
2023-04-15T18:19:32.275Z,15.38
2023-04-15T18:22:01.821Z,15.35
2023-04-15T18:24:30.321Z,15.27
2023-04-15T18:26:59.139Z,15.20
2023-04-15T18:29:27.313Z,15.15
2023-04-15T18:31:55.750Z,15.09
2023-04-15T18:34:23.915Z,15.04
2023-04-15T18:36:52.124Z,14.94
2023-04-15T18:39:21.806Z,14.84
2023-04-15T18:41:50.126Z,14.78
2023-04-15T18:44:18.205Z,14.72
2023-04-15T18:46:46.724Z,14.66
2023-04-15T18:49:14.836Z,14.58
2023-04-15T18:51:43.125Z,14.52
2023-04-15T18:54:11.433Z,14.44
2023-04-15T18:56:41.631Z,14.38
2023-04-15T18:59:28.816Z,14.30
2023-04-15T19:01:58.814Z,14.21
2023-04-15T19:04:29.234Z,14.14
2023-04-15T19:06:58.909Z,14.04
2023-04-15T19:09:27.598Z,13.96
2023-04-15T19:11:59.590Z,13.90
2023-04-15T19:14:29.343Z,13.81
2023-04-15T19:16:57.873Z,13.70
2023-04-15T19:19:26.358Z,13.58
2023-04-15T19:21:54.822Z,13.49
2023-04-15T19:24:24.366Z,13.45
2023-04-15T19:26:52.584Z,13.40
2023-04-15T19:29:23.235Z,13.38
2023-04-15T19:31:51.891Z,13.38
2023-04-15T19:34:20.140Z,13.40
2023-04-15T19:36:48.504Z,13.37
2023-04-15T19:39:16.771Z,13.33
2023-04-15T19:41:45.025Z,13.31
2023-04-15T19:44:13.732Z,13.30
2023-04-15T19:46:44.985Z,13.28
2023-04-15T19:49:13.462Z,13.24
2023-04-15T19:51:42.862Z,13.26
2023-04-15T19:54:11.153Z,13.22
2023-04-15T19:56:39.688Z,13.19
2023-04-15T19:59:08.165Z,13.20
2023-04-15T20:01:36.701Z,13.19
2023-04-15T20:04:06.793Z,13.14
2023-04-15T20:06:35.089Z,13.07
2023-04-15T20:09:03.528Z,13.03
2023-04-15T20:12:47.895Z,13.06
2023-04-15T20:14:20.553Z,13.09
2023-04-15T20:16:48.698Z,13.05
2023-04-15T20:19:18.447Z,12.96
2023-04-15T20:21:46.931Z,12.91
2023-04-15T20:24:15.181Z,12.90
2023-04-15T20:26:43.327Z,12.88
2023-04-15T20:29:11.499Z,12.81
2023-04-15T20:31:39.892Z,12.66
2023-04-15T20:34:10.612Z,12.54
2023-04-15T20:36:42.314Z,12.46
2023-04-15T20:39:10.642Z,12.39
2023-04-15T20:41:39.280Z,12.33
2023-04-15T20:44:07.396Z,12.19
2023-04-15T20:46:35.708Z,12.14
2023-04-15T20:49:04.284Z,12.14
2023-04-15T20:51:37.701Z,12.17
2023-04-15T20:54:08.032Z,12.21
2023-04-15T20:56:36.359Z,12.23
2023-04-15T20:59:05.124Z,12.18
2023-04-15T21:01:34.051Z,12.11
2023-04-15T21:04:02.380Z,12.08
2023-04-15T21:06:30.978Z,12.08
2023-04-15T21:08:59.243Z,12.00
2023-04-15T21:14:07.979Z,11.80
2023-04-15T21:16:36.533Z,11.75
2023-04-15T21:19:05.140Z,11.70
2023-04-15T21:21:33.787Z,11.70
2023-04-15T21:24:02.068Z,11.69
2023-04-15T21:26:31.664Z,11.69
2023-04-15T21:29:00.332Z,11.68
2023-04-15T21:31:28.733Z,11.61
2023-04-15T21:33:57.044Z,11.50
2023-04-15T21:36:27.015Z,11.43
2023-04-15T21:38:55.293Z,11.34
2023-04-15T21:41:23.591Z,11.21
2023-04-15T21:43:53.387Z,11.18
2023-04-15T21:46:25.349Z,11.17
2023-04-15T21:48:54.291Z,11.02
2023-04-15T21:51:22.624Z,11.11
2023-04-15T21:53:50.841Z,11.14
2023-04-15T21:56:20.342Z,11.08
2023-04-15T21:58:48.541Z,11.05
2023-04-15T22:01:18.234Z,11.06
2023-04-15T22:03:46.656Z,11.07
2023-04-15T22:06:14.942Z,11.08
2023-04-15T22:08:54.952Z,11.05
2023-04-15T22:11:28.194Z,11.00
2023-04-15T22:13:57.766Z,11.07
2023-04-15T22:16:27.703Z,11.09
2023-04-15T22:18:56.515Z,11.02
2023-04-15T22:21:24.980Z,10.94
2023-04-15T22:24:35.020Z,10.91
2023-04-15T22:26:42.684Z,10.90
2023-04-15T22:29:11.211Z,10.91
2023-04-15T22:31:40.968Z,10.88
2023-04-15T22:34:09.410Z,10.79
2023-04-15T22:36:38.168Z,10.77
2023-04-15T22:39:06.599Z,10.76
2023-04-15T22:41:35.067Z,10.73
2023-04-15T22:44:03.288Z,10.66
2023-04-15T22:46:31.550Z,10.64
2023-04-15T22:49:01.647Z,10.67
2023-04-15T22:51:30.092Z,10.67
2023-04-15T22:53:58.379Z,10.72
2023-04-15T22:56:26.667Z,10.70
2023-04-15T22:58:54.827Z,10.70
2023-04-15T23:01:23.154Z,10.76
2023-04-15T23:03:57.473Z,10.81
2023-04-15T23:06:36.473Z,10.80
2023-04-15T23:09:05.445Z,10.81
2023-04-15T23:11:33.692Z,10.80
2023-04-15T23:14:01.896Z,10.80
2023-04-15T23:16:30.568Z,10.82
2023-04-15T23:18:58.948Z,10.83
2023-04-15T23:21:29.188Z,10.84
2023-04-15T23:23:58.782Z,10.85
2023-04-15T23:26:27.584Z,10.85
2023-04-15T23:28:55.853Z,10.86
2023-04-15T23:31:24.390Z,10.89
2023-04-15T23:33:52.662Z,10.89
2023-04-15T23:36:20.928Z,10.87
2023-04-15T23:38:49.161Z,10.85
2023-04-15T23:41:18.874Z,10.80
2023-04-15T23:43:47.075Z,10.73
2023-04-15T23:46:15.328Z,10.70
2023-04-15T23:48:43.595Z,10.66
2023-04-15T23:51:12.124Z,10.62
2023-04-15T23:53:40.294Z,10.58
2023-04-15T23:56:09.144Z,10.51
2023-04-15T23:58:45.697Z,10.43
